Time;durP1;ratioP1;P1;durP2;ratioP2;P2;SDS_P1;SDS_P2;PMS_P1;PMS_P2;Temp;Humidity;BMP_temperature;BMP_pressure;BME280_temperature;BME280_humidity;BME280_pressure;Samples;Min_cycle;Max_cycle;Signal;HPM_P1;HPM_P2
2022/09/26 00:00:05;;;;;;;;;1.25;1.00;;;;;14.97;55.90;100657.13;4864667;29;45765;-82
2022/09/26 00:02:30;;;;;;;;;1.50;1.00;;;;;14.85;55.98;100652.94;4864374;29;46088;-80
2022/09/26 00:04:56;;;;;;;;;2.00;1.00;;;;;14.87;56.39;100657.09;4864555;29;45627;-81
2022/09/26 00:10:43;;;;;;;;;1.00;1.00;;;;;14.76;56.67;100645.84;4864072;29;46182;-80
2022/09/26 00:13:09;;;;;;;;;1.75;1.50;;;;;14.72;56.81;100641.81;4847523;29;48114;-80
2022/09/26 00:15:34;;;;;;;;;2.00;2.00;;;;;14.68;57.12;100639.41;4864248;29;45798;-81
2022/09/26 00:17:59;;;;;;;;;1.50;1.00;;;;;14.66;56.97;100641.38;4864647;29;45632;-80
2022/09/26 00:20:25;;;;;;;;;1.00;1.00;;;;;14.68;57.30;100644.69;4862248;29;45956;-80
2022/09/26 00:22:50;;;;;;;;;2.00;2.00;;;;;14.65;57.06;100639.69;4861091;29;45986;-79
2022/09/26 00:25:15;;;;;;;;;1.75;1.75;;;;;14.62;57.12;100639.16;4861335;29;45656;-80
2022/09/26 00:27:41;;;;;;;;;0.75;0.50;;;;;14.59;57.39;100632.31;4846384;29;45924;-80
2022/09/26 00:30:07;;;;;;;;;2.75;1.25;;;;;14.57;57.32;100629.00;4868048;29;46874;-81
2022/09/26 00:32:32;;;;;;;;;2.00;2.00;;;;;14.51;57.78;100624.25;4867980;29;46482;-81
2022/09/26 00:34:58;;;;;;;;;1.75;1.00;;;;;14.54;57.46;100623.97;4868076;29;46061;-82
2022/09/26 00:40:45;;;;;;;;;1.00;1.00;;;;;14.48;57.84;100611.34;4863423;29;45939;-82
2022/09/26 00:43:29;;;;;;;;;1.00;1.00;;;;;14.48;57.69;100598.16;4863970;29;45757;-81
2022/09/26 00:46:23;;;;;;;;;1.00;1.00;;;;;14.48;57.78;100603.41;4864674;29;45755;-80
2022/09/26 00:48:54;;;;;;;;;2.50;2.00;;;;;14.43;57.98;100588.97;4861095;29;45604;-82
2022/09/26 00:51:20;;;;;;;;;2.00;1.75;;;;;14.48;57.90;100602.59;4843925;29;47669;-82
2022/09/26 00:53:48;;;;;;;;;1.50;1.00;;;;;14.46;58.16;100597.47;4860739;29;45492;-82
2022/09/26 00:56:21;;;;;;;;;2.00;2.00;;;;;14.45;57.84;100587.88;4862622;29;45761;-82
2022/09/26 00:58:51;;;;;;;;;1.00;1.00;;;;;14.46;58.41;100594.84;4861725;29;45776;-81
2022/09/26 01:01:18;;;;;;;;;1.00;1.00;;;;;14.45;58.18;100590.53;4860822;29;48567;-82
2022/09/26 01:03:47;;;;;;;;;1.25;1.25;;;;;14.44;58.40;100594.13;4861290;29;46191;-82
2022/09/26 01:06:14;;;;;;;;;1.00;1.00;;;;;14.45;58.17;100585.25;4860398;29;45881;-81
2022/09/26 01:08:51;;;;;;;;;1.00;1.00;;;;;14.45;58.69;100584.41;4860633;29;45592;-82
2022/09/26 01:11:17;;;;;;;;;1.75;1.75;;;;;14.43;58.33;100581.06;4860185;29;45699;-81
2022/09/26 01:13:43;;;;;;;;;1.00;1.00;;;;;14.43;58.29;100583.69;4859977;29;46129;-80
2022/09/26 01:16:09;;;;;;;;;1.75;1.00;;;;;14.43;58.37;100586.34;4860777;29;45886;-81
2022/09/26 01:18:35;;;;;;;;;2.00;1.00;;;;;14.41;58.36;100583.03;4860271;29;45617;-81
2022/09/26 01:21:23;;;;;;;;;2.00;1.00;;;;;14.39;58.54;100588.41;4859873;29;45742;-81
2022/09/26 01:24:18;;;;;;;;;2.25;1.75;;;;;14.38;58.33;100584.09;4820743;29;46572;-80
2022/09/26 01:26:56;;;;;;;;;1.75;1.75;;;;;14.34;58.57;100581.84;4820382;29;45830;-80
2022/09/26 01:29:39;;;;;;;;;1.25;1.25;;;;;14.33;58.66;100583.66;4820570;29;45747;-80
2022/09/26 01:35:28;;;;;;;;;1.00;1.00;;;;;14.34;58.53;100579.22;4820573;29;46236;-80
2022/09/26 01:38:17;;;;;;;;;1.50;1.00;;;;;14.32;58.40;100581.97;4820605;29;45934;-80
2022/09/26 01:41:16;;;;;;;;;2.00;2.00;;;;;14.33;58.84;100565.19;4820732;29;45831;-81
2022/09/26 01:43:41;;;;;;;;;0.75;0.50;;;;;14.29;58.54;100574.34;4820197;29;46451;-80
2022/09/26 01:46:33;;;;;;;;;1.50;1.50;;;;;14.23;58.30;100566.97;4820535;29;46055;-80
2022/09/26 01:49:13;;;;;;;;;1.00;1.00;;;;;14.21;58.35;100575.00;4820125;29;45804;-80
2022/09/26 01:55:31;;;;;;;;;1.00;1.00;;;;;14.14;58.89;100558.03;4820147;29;46091;-82
2022/09/26 01:58:16;;;;;;;;;1.00;1.00;;;;;14.13;58.82;100547.66;4819023;29;46069;-82
2022/09/26 02:00:46;;;;;;;;;2.00;1.00;;;;;14.07;58.80;100537.66;4835245;29;45928;-82
2022/09/26 02:03:20;;;;;;;;;1.00;1.00;;;;;14.06;58.63;100535.97;4842698;29;45688;-80
2022/09/26 02:05:52;;;;;;;;;1.75;1.00;;;;;14.04;58.76;100532.63;4859594;29;46956;-80
2022/09/26 02:11:44;;;;;;;;;1.00;1.00;;;;;14.05;58.75;100526.41;4859166;29;45661;-82
2022/09/26 02:14:26;;;;;;;;;1.00;1.00;;;;;14.03;58.42;100523.91;4859680;29;45819;-81
2022/09/26 02:16:56;;;;;;;;;1.00;1.00;;;;;14.05;58.44;100526.41;4857732;29;46676;-79
2022/09/26 02:19:27;;;;;;;;;1.75;1.00;;;;;14.04;58.43;100524.72;4857817;29;46778;-79
2022/09/26 02:21:53;;;;;;;;;1.00;1.00;;;;;13.99;58.39;100514.59;4859296;29;45642;-80
2022/09/26 02:24:21;;;;;;;;;1.75;1.00;;;;;13.96;58.31;100512.25;4859171;29;45907;-80
2022/09/26 02:26:46;;;;;;;;;1.00;1.00;;;;;13.91;58.32;100509.16;4859324;29;46591;-80
2022/09/26 02:29:13;;;;;;;;;0.75;0.25;;;;;13.93;58.67;100506.41;4858794;29;45684;-79
2022/09/26 02:32:11;;;;;;;;;1.00;1.00;;;;;13.90;58.74;100496.13;4859322;29;45779;-80
2022/09/26 02:34:37;;;;;;;;;1.00;1.00;;;;;13.95;58.88;100497.41;4859370;29;45501;-80
2022/09/26 02:37:04;;;;;;;;;1.00;1.00;;;;;13.98;58.46;100499.75;4859032;29;45689;-80
2022/09/26 02:39:30;;;;;;;;;1.00;1.00;;;;;13.96;58.37;100492.97;4859013;29;45752;-81
2022/09/26 02:42:20;;;;;;;;;1.00;0.25;;;;;13.99;58.31;100484.78;4859320;29;45592;-79
2022/09/26 02:45:05;;;;;;;;;1.00;1.00;;;;;13.96;58.55;100482.44;4858401;29;45756;-81
2022/09/26 02:47:53;;;;;;;;;0.25;0.00;;;;;13.96;58.86;100474.53;4841682;29;47213;-79
2022/09/26 02:50:38;;;;;;;;;3.75;1.00;;;;;13.95;58.45;100465.78;4858699;29;46295;-80
2022/09/26 02:53:40;;;;;;;;;1.75;1.00;;;;;13.95;58.71;100454.41;4858656;29;45800;-80
2022/09/26 02:56:34;;;;;;;;;0.75;0.75;;;;;13.96;58.34;100443.75;4859282;29;45504;-81
2022/09/26 02:59:20;;;;;;;;;1.00;1.00;;;;;13.96;58.45;100443.75;4858763;29;45751;-81
2022/09/26 03:02:14;;;;;;;;;0.00;0.00;;;;;13.98;58.55;100433.09;4859074;29;45679;-80
2022/09/26 03:04:45;;;;;;;;;1.75;0.00;;;;;13.99;58.45;100427.66;4858844;29;45742;-81
2022/09/26 03:10:34;;;;;;;;;1.00;0.50;;;;;14.04;58.04;100420.19;4858076;29;45717;-81
2022/09/26 03:13:07;;;;;;;;;1.00;1.00;;;;;14.08;58.43;100418.13;4858844;29;46044;-81
2022/09/26 03:15:35;;;;;;;;;2.75;1.00;;;;;14.13;58.00;100408.03;4858639;29;45831;-81
2022/09/26 03:18:05;;;;;;;;;1.00;0.50;;;;;14.17;57.99;100401.50;4858989;29;45779;-81
2022/09/26 03:20:30;;;;;;;;;1.00;1.00;;;;;14.20;58.13;100393.31;4856899;29;45838;-81
2022/09/26 03:26:23;;;;;;;;;3.00;1.00;;;;;14.18;57.80;100393.47;4858723;29;45719;-81
2022/09/26 03:28:50;;;;;;;;;0.00;0.00;;;;;14.13;57.79;100389.56;4858907;29;45922;-81
2022/09/26 03:31:21;;;;;;;;;2.00;1.00;;;;;14.11;58.04;100379.16;4858710;29;45607;-81
2022/09/26 03:33:47;;;;;;;;;1.00;1.00;;;;;14.11;58.02;100379.16;4858343;29;45809;-81
2022/09/26 03:36:13;;;;;;;;;0.00;0.00;;;;;14.09;58.11;100381.09;4859056;29;45765;-80
2022/09/26 03:42:01;;;;;;;;;1.00;1.00;;;;;14.08;57.99;100368.91;4857910;29;46249;-80
2022/09/26 03:44:27;;;;;;;;;0.00;0.00;;;;;14.07;57.97;100369.03;4858022;29;45997;-80
2022/09/26 03:46:53;;;;;;;;;0.25;0.00;;;;;14.05;58.00;100348.09;4858331;29;45869;-81
2022/09/26 03:49:18;;;;;;;;;1.00;1.00;;;;;14.08;58.14;100342.56;4858184;29;45696;-81
2022/09/26 03:51:44;;;;;;;;;1.00;0.25;;;;;14.07;57.80;100343.53;4858131;29;46363;-81
2022/09/26 03:57:31;;;;;;;;;1.00;1.00;;;;;14.04;58.17;100333.25;4859807;29;45818;-80
2022/09/26 03:59:57;;;;;;;;;0.25;0.25;;;;;14.01;58.11;100335.34;4860713;29;46012;-81
2022/09/26 04:02:22;;;;;;;;;1.00;1.00;;;;;14.01;58.21;100341.44;4861038;29;45629;-80
2022/09/26 04:04:48;;;;;;;;;0.50;0.00;;;;;14.00;58.02;100337.16;4861282;29;45716;-80
2022/09/26 04:07:13;;;;;;;;;0.00;0.00;;;;;14.00;58.00;100342.41;4861348;29;45622;-81
2022/09/26 04:13:14;;;;;;;;;1.00;0.00;;;;;14.00;57.69;100321.34;4861230;29;45697;-80
2022/09/26 04:15:39;;;;;;;;;1.00;0.75;;;;;13.99;57.81;100314.41;4861261;29;45986;-81
2022/09/26 04:18:04;;;;;;;;;1.00;1.00;;;;;13.97;57.86;100310.25;4844060;29;45708;-81
2022/09/26 04:20:30;;;;;;;;;1.00;0.75;;;;;13.95;57.47;100301.66;4860995;29;46060;-81
2022/09/26 04:22:56;;;;;;;;;0.50;0.50;;;;;13.92;57.62;100294.88;4861120;29;46628;-79
2022/09/26 04:28:43;;;;;;;;;1.00;0.50;;;;;13.93;57.29;100282.53;4860791;29;45655;-81
2022/09/26 04:31:09;;;;;;;;;0.00;0.00;;;;;13.91;57.66;100273.94;4861573;29;45889;-81
2022/09/26 04:33:38;;;;;;;;;1.00;0.25;;;;;13.93;57.71;100278.06;4860651;29;46700;-81
2022/09/26 04:36:05;;;;;;;;;1.00;1.00;;;;;13.93;57.37;100266.75;4860918;29;46062;-81
2022/09/26 04:38:34;;;;;;;;;1.50;1.00;;;;;13.93;57.67;100262.28;4861040;29;45799;-81
2022/09/26 04:41:10;;;;;;;;;1.00;1.00;;;;;13.94;57.61;100263.94;4861286;29;45955;-81
2022/09/26 04:43:36;;;;;;;;;0.50;0.50;;;;;13.95;57.64;100264.78;4860694;29;47001;-79
2022/09/26 04:46:07;;;;;;;;;1.00;0.00;;;;;13.94;57.28;100261.31;4860896;29;46643;-80
2022/09/26 04:48:33;;;;;;;;;0.75;0.75;;;;;13.90;57.46;100241.50;4860848;29;45716;-82
2022/09/26 04:50:58;;;;;;;;;3.00;1.00;;;;;13.88;57.20;100231.09;4860950;29;45808;-82
2022/09/26 04:53:23;;;;;;;;;0.00;0.00;;;;;13.95;57.16;100235.81;4860338;29;46499;-81
2022/09/26 04:55:51;;;;;;;;;1.00;1.00;;;;;13.95;57.42;100231.38;4859218;29;47275;-81
2022/09/26 04:58:17;;;;;;;;;0.75;0.75;;;;;13.96;57.38;100237.47;4855944;29;45736;-82
2022/09/26 05:00:46;;;;;;;;;0.00;0.00;;;;;13.92;57.29;100225.56;4841782;29;45879;-81
2022/09/26 05:03:13;;;;;;;;;1.00;1.00;;;;;13.96;57.39;100232.22;4841657;29;45571;-80
2022/09/26 05:05:40;;;;;;;;;1.00;1.00;;;;;13.92;57.30;100228.19;4842292;29;45956;-81
2022/09/26 05:08:06;;;;;;;;;0.00;0.00;;;;;13.85;57.51;100223.50;4839759;29;45817;-81
2022/09/26 05:13:53;;;;;;;;;0.00;0.00;;;;;13.82;57.70;100210.59;4841394;29;45612;-81
2022/09/26 05:16:19;;;;;;;;;1.00;0.00;;;;;13.83;57.81;100198.25;4841892;29;45784;-80
2022/09/26 05:18:49;;;;;;;;;1.00;1.00;;;;;13.83;57.37;100191.19;4841929;29;46208;-81
2022/09/26 05:21:14;;;;;;;;;0.00;0.00;;;;;13.87;57.26;100186.50;4842083;29;45744;-81
2022/09/26 05:29:45;;;;;;;;;0.00;0.00;;;;;13.97;57.17;100165.41;4840984;29;45782;-80
2022/09/26 05:32:12;;;;;;;;;0.00;0.00;;;;;13.96;57.65;100166.38;4842210;29;45809;-80
2022/09/26 05:34:38;;;;;;;;;1.00;1.00;;;;;13.99;57.61;100166.06;4842395;29;46468;-79
2022/09/26 05:37:03;;;;;;;;;0.00;0.00;;;;;13.98;57.20;100157.34;4843621;29;46020;-80
2022/09/26 05:42:14;;;;;;;;;0.25;0.00;;;;;14.04;57.16;100167.31;4841502;29;45589;-80
2022/09/26 05:44:39;;;;;;;;;1.50;0.25;;;;;14.06;57.39;100164.53;4841241;29;45658;-80
2022/09/26 05:47:06;;;;;;;;;0.25;0.25;;;;;14.00;57.28;100157.19;4841586;29;45603;-80
2022/09/26 05:49:34;;;;;;;;;1.00;0.75;;;;;14.05;57.06;100155.81;4841364;29;45517;-81
2022/09/26 05:52:02;;;;;;;;;1.00;1.00;;;;;14.03;57.18;100152.50;4841412;29;45716;-80
2022/09/26 05:54:27;;;;;;;;;0.00;0.00;;;;;14.06;57.44;100154.00;4841119;29;45783;-83
2022/09/26 05:56:52;;;;;;;;;0.50;0.50;;;;;14.07;57.63;100153.88;4845838;29;45720;-81
2022/09/26 05:59:18;;;;;;;;;1.00;0.75;;;;;14.02;57.52;100142.94;4861295;29;45898;-80
2022/09/26 06:01:45;;;;;;;;;0.00;0.00;;;;;14.05;57.74;100150.53;4860591;29;45712;-82
2022/09/26 06:04:11;;;;;;;;;2.00;0.75;;;;;14.02;57.50;100147.38;4860600;29;45926;-81
2022/09/26 06:06:36;;;;;;;;;0.00;0.00;;;;;14.02;57.56;100150.00;4859597;29;46445;-77
2022/09/26 06:09:02;;;;;;;;;2.00;0.50;;;;;13.98;57.71;100146.81;4842476;29;45638;-77
2022/09/26 06:14:51;;;;;;;;;1.00;1.00;;;;;13.98;57.95;100146.81;4858726;29;45989;-77
2022/09/26 06:17:17;;;;;;;;;1.00;1.00;;;;;13.97;58.27;100145.16;4858666;29;46049;-76
2022/09/26 06:19:43;;;;;;;;;0.75;0.75;;;;;13.95;57.85;100148.91;4857742;29;45845;-77
2022/09/26 06:22:08;;;;;;;;;1.75;1.00;;;;;13.94;58.09;100137.53;4859232;29;45883;-79
2022/09/26 06:24:34;;;;;;;;;0.50;0.50;;;;;13.95;58.02;100144.47;4858568;29;46415;-77
2022/09/26 06:26:59;;;;;;;;;2.75;1.00;;;;;13.97;58.42;100146.97;4858484;29;46225;-75
2022/09/26 06:29:25;;;;;;;;;0.00;0.00;;;;;13.97;58.36;100146.97;4857613;29;45678;-75
2022/09/26 06:31:50;;;;;;;;;1.50;1.00;;;;;13.95;58.01;100143.63;4858728;29;45886;-77
2022/09/26 06:34:15;;;;;;;;;1.25;1.00;;;;;13.95;58.31;100146.25;4858445;29;46458;-78
2022/09/26 06:36:41;;;;;;;;;0.25;0.25;;;;;13.88;58.52;100138.09;4858935;29;45718;-75
2022/09/26 06:39:07;;;;;;;;;1.00;1.00;;;;;13.87;58.55;100125.94;4859206;29;45672;-77
2022/09/26 06:44:54;;;;;;;;;1.00;0.00;;;;;13.86;58.24;100126.88;4858667;29;46531;-76
2022/09/26 06:47:21;;;;;;;;;1.00;1.00;;;;;13.84;58.43;100129.66;4842046;29;47673;-76
2022/09/26 06:49:47;;;;;;;;;1.00;1.00;;;;;13.84;58.50;100123.56;4858469;29;45743;-74
2022/09/26 06:52:13;;;;;;;;;1.00;1.00;;;;;13.83;58.57;100124.53;4858808;29;45676;-76
2022/09/26 06:54:38;;;;;;;;;0.50;0.00;;;;;13.75;58.38;100109.44;4841916;29;47574;-76
2022/09/26 07:01:05;;;;;;;;;0.00;0.00;;;;;13.80;59.20;100114.28;4854055;29;45732;-74
2022/09/26 07:03:31;;;;;;;;;1.75;0.50;;;;;13.82;58.89;100107.88;4858786;29;45693;-75
2022/09/26 07:05:57;;;;;;;;;1.50;1.00;;;;;13.84;59.02;100108.59;4859034;29;46571;-73
2022/09/26 07:08:24;;;;;;;;;1.00;1.00;;;;;13.88;58.54;100094.16;4858584;29;46126;-73
2022/09/26 07:10:49;;;;;;;;;1.00;1.00;;;;;13.89;58.73;100095.00;4841795;29;45634;-74
2022/09/26 07:13:15;;;;;;;;;0.00;0.00;;;;;13.92;58.87;100089.47;4858488;29;45826;-75
2022/09/26 07:15:44;;;;;;;;;1.25;1.00;;;;;13.96;58.58;100084.72;4858654;29;47410;-73
2022/09/26 07:18:10;;;;;;;;;2.00;0.50;;;;;13.98;58.41;100080.94;4858490;29;47144;-75
2022/09/26 07:20:39;;;;;;;;;0.25;0.25;;;;;14.03;58.61;100068.22;4858609;29;45690;-75
2022/09/26 07:23:09;;;;;;;;;1.50;1.00;;;;;14.05;58.31;100058.34;4858628;29;45579;-77
2022/09/26 07:25:37;;;;;;;;;1.00;0.75;;;;;14.07;58.39;100056.41;4858123;29;47727;-74
2022/09/26 07:28:03;;;;;;;;;1.00;1.00;;;;;14.08;58.16;100046.69;4858320;29;46197;-75
2022/09/26 07:30:28;;;;;;;;;1.00;1.00;;;;;14.13;58.29;100050.56;4842735;29;45620;-76
2022/09/26 07:33:01;;;;;;;;;1.50;0.75;;;;;14.21;58.40;100053.28;4861831;29;45602;-76
2022/09/26 07:35:27;;;;;;;;;1.00;1.00;;;;;14.24;58.05;100031.09;4861758;29;47243;-78
2022/09/26 07:37:57;;;;;;;;;1.00;1.00;;;;;14.28;57.93;100028.00;4860731;29;46354;-78
2022/09/26 07:40:22;;;;;;;;;1.00;1.00;;;;;14.32;57.80;100015.38;4844301;29;45660;-76
2022/09/26 07:42:47;;;;;;;;;1.00;0.75;;;;;14.38;57.75;100006.91;4861254;29;45687;-76
2022/09/26 07:45:13;;;;;;;;;1.00;1.00;;;;;14.39;57.60;100005.09;4861417;29;45648;-77
2022/09/26 07:50:22;;;;;;;;;1.00;0.00;;;;;14.50;57.40;100003.09;4861027;29;45909;-75
2022/09/26 07:52:50;;;;;;;;;1.00;0.75;;;;;14.56;57.09;100006.94;4860846;29;45736;-78
2022/09/26 08:01:30;;;;;;;;;0.75;0.75;;;;;14.67;56.76;99993.53;4855370;29;45740;-79
2022/09/26 08:03:57;;;;;;;;;0.00;0.00;;;;;14.69;56.81;99995.03;4861385;29;45742;-80
2022/09/26 08:06:24;;;;;;;;;1.00;1.00;;;;;14.70;56.61;99994.06;4844759;29;46769;-77
2022/09/26 08:08:54;;;;;;;;;1.00;1.00;;;;;14.72;56.48;100001.00;4862718;29;45981;-80
2022/09/26 08:11:19;;;;;;;;;1.50;1.50;;;;;14.70;56.79;99993.22;4862238;29;45628;-76
2022/09/26 08:13:46;;;;;;;;;1.00;1.00;;;;;14.75;56.27;99988.31;4861102;29;45547;-75
2022/09/26 08:16:21;;;;;;;;;1.00;1.00;;;;;14.80;56.13;99993.13;4861389;29;45561;-78
2022/09/26 08:18:48;;;;;;;;;3.25;2.00;;;;;14.81;56.26;99990.38;4860514;29;46068;-74
2022/09/26 08:21:13;;;;;;;;;0.75;0.75;;;;;14.83;55.91;99979.66;4862295;29;45799;-79
2022/09/26 08:23:38;;;;;;;;;0.75;0.75;;;;;14.88;55.97;99974.78;4861570;29;45515;-74
2022/09/26 08:26:05;;;;;;;;;1.00;1.00;;;;;14.94;56.21;99971.53;4860821;29;46745;-76
2022/09/26 08:28:32;;;;;;;;;1.50;1.00;;;;;14.99;55.93;99970.09;4860978;29;46045;-78
2022/09/26 08:31:02;;;;;;;;;1.00;0.75;;;;;15.05;55.39;99972.13;4843633;29;45945;-75
2022/09/26 08:33:28;;;;;;;;;0.00;0.00;;;;;15.06;55.38;99963.19;4860992;29;45630;-80
2022/09/26 08:35:54;;;;;;;;;1.00;1.00;;;;;15.09;55.24;99962.91;4860919;29;45756;-75
2022/09/26 08:38:21;;;;;;;;;1.00;1.00;;;;;15.14;55.49;99957.16;4860985;29;46235;-77
2022/09/26 08:41:00;;;;;;;;;1.25;1.00;;;;;15.19;55.16;99954.06;4861241;29;45552;-76
2022/09/26 08:43:37;;;;;;;;;2.25;2.00;;;;;15.24;55.25;99946.50;4843203;29;45801;-76
2022/09/26 08:49:21;;;;;;;;;1.00;1.00;;;;;15.36;54.70;99932.06;4860020;29;46152;-78
2022/09/26 08:51:52;;;;;;;;;0.50;0.00;;;;;15.39;54.59;99935.22;4860727;29;45789;-77
2022/09/26 08:54:26;;;;;;;;;1.00;1.00;;;;;15.44;54.58;99940.84;4860687;29;45522;-74
2022/09/26 08:57:00;;;;;;;;;1.00;1.00;;;;;15.51;54.46;99928.72;4859868;29;46701;-75
2022/09/26 08:59:25;;;;;;;;;1.50;1.00;;;;;15.55;53.91;99923.13;4860196;29;45993;-74
2022/09/26 09:01:54;;;;;;;;;0.50;0.50;;;;;15.58;54.04;99913.09;4860052;29;45807;-73
2022/09/26 09:04:25;;;;;;;;;1.50;1.50;;;;;15.60;53.78;99924.28;4859994;29;45540;-75
2022/09/26 09:07:01;;;;;;;;;1.00;1.00;;;;;15.62;53.79;99903.84;4859777;29;47455;-74
2022/09/26 09:09:26;;;;;;;;;2.00;1.25;;;;;15.63;53.62;99909.97;4859793;29;47080;-75
2022/09/26 09:12:11;;;;;;;;;1.00;1.00;;;;;15.65;53.49;99900.09;4859488;29;45571;-74
2022/09/26 09:14:48;;;;;;;;;1.00;1.00;;;;;15.70;53.64;99903.91;4859941;29;45846;-76
2022/09/26 09:17:50;;;;;;;;;1.00;1.00;;;;;15.73;53.17;99884.25;4860393;29;45690;-76
2022/09/26 09:20:36;;;;;;;;;2.00;1.00;;;;;15.78;53.22;99882.78;4859885;29;45875;-73
2022/09/26 09:23:29;;;;;;;;;1.00;1.00;;;;;15.86;52.94;99874.91;4860095;29;45672;-74
2022/09/26 09:26:08;;;;;;;;;1.00;1.00;;;;;15.94;52.72;99869.63;4860426;29;45777;-75
2022/09/26 09:29:07;;;;;;;;;0.25;0.25;;;;;16.01;52.72;99861.06;4859644;29;46527;-74
2022/09/26 09:31:42;;;;;;;;;1.00;1.00;;;;;16.12;52.54;99860.75;4859726;29;46549;-73
2022/09/26 09:34:24;;;;;;;;;1.50;1.50;;;;;16.19;52.59;99853.81;4858750;29;46110;-72
2022/09/26 09:36:56;;;;;;;;;1.75;1.00;;;;;16.26;52.08;99846.88;4860138;29;45756;-73
2022/09/26 09:39:38;;;;;;;;;1.50;1.50;;;;;16.30;51.54;99851.66;4859849;29;45592;-73
2022/09/26 09:45:46;;;;;;;;;0.50;0.00;;;;;16.32;51.49;99835.66;4860115;29;45672;-74
2022/09/26 09:48:12;;;;;;;;;2.00;2.00;;;;;16.31;51.24;99834.81;4859961;29;45692;-75
2022/09/26 09:51:12;;;;;;;;;1.00;1.00;;;;;16.31;51.02;99834.00;4860219;29;45907;-76
2022/09/26 09:54:05;;;;;;;;;1.75;1.00;;;;;16.30;51.20;99814.66;4859900;29;45636;-75
2022/09/26 10:03:42;;;;;;;;;0.00;0.00;;;;;16.37;50.81;99814.84;4842549;29;46004;-77
2022/09/26 10:06:10;;;;;;;;;0.25;0.00;;;;;16.34;50.74;99800.13;4843415;29;46961;-79
2022/09/26 10:08:39;;;;;;;;;1.50;1.00;;;;;16.32;50.99;99796.81;4845584;29;45795;-76
2022/09/26 10:11:19;;;;;;;;;1.00;1.00;;;;;16.31;51.04;99794.34;4844883;29;45751;-80
2022/09/26 10:17:09;;;;;;;;;2.00;1.00;;;;;16.37;51.13;99777.81;4841873;29;45681;-73
2022/09/26 10:19:37;;;;;;;;;9.00;7.75;;;;;16.36;51.07;99792.84;4843766;29;45761;-76
2022/09/26 10:22:08;;;;;;;;;5.00;3.00;;;;;16.35;51.22;99762.13;4845029;29;45842;-76
2022/09/26 10:24:42;;;;;;;;;17.50;16.25;;;;;16.33;50.95;99766.75;4847064;29;45679;-80
2022/09/26 10:27:23;;;;;;;;;10.25;8.75;;;;;16.30;51.20;99750.41;4846598;29;45681;-76
2022/09/26 10:29:59;;;;;;;;;0.50;0.00;;;;;16.29;51.09;99744.31;4844967;29;45674;-78
2022/09/26 10:32:26;;;;;;;;;3.00;2.25;;;;;16.26;51.09;99741.97;4844769;29;45720;-79
2022/09/26 10:35:22;;;;;;;;;3.25;1.25;;;;;16.29;51.46;99727.63;4843960;29;45647;-77
2022/09/26 10:38:17;;;;;;;;;12.25;10.25;;;;;16.31;51.37;99722.97;4842759;29;46584;-78
2022/09/26 10:40:51;;;;;;;;;7.25;5.75;;;;;16.32;51.68;99722.81;4841904;29;45586;-77
2022/09/26 10:43:31;;;;;;;;;6.00;6.00;;;;;16.31;51.60;99715.03;4841850;29;45698;-77
2022/09/26 10:46:15;;;;;;;;;3.00;3.00;;;;;16.33;51.92;99698.03;4841877;29;47751;-77
2022/09/26 10:48:56;;;;;;;;;2.00;1.00;;;;;16.36;51.76;99710.06;4841157;29;46389;-73
2022/09/26 10:51:36;;;;;;;;;1.50;1.00;;;;;16.37;51.96;99699.34;4841575;29;45592;-74
2022/09/26 10:54:10;;;;;;;;;1.75;1.50;;;;;16.35;52.17;99692.56;4841378;29;45938;-76
2022/09/26 10:56:42;;;;;;;;;1.00;1.00;;;;;16.33;52.10;99702.47;4841131;29;47815;-75
2022/09/26 10:59:11;;;;;;;;;2.00;1.00;;;;;16.31;52.20;99683.31;4840506;29;46870;-76
2022/09/26 11:01:41;;;;;;;;;0.00;0.00;;;;;16.29;52.45;99678.22;4845206;29;45795;-75
2022/09/26 11:05:55;;;;;;;;;1.00;1.00;;;;;16.28;52.36;99691.59;4859189;29;45578;-76
2022/09/26 11:07:02;;;;;;;;;2.00;1.00;;;;;16.26;53.02;99683.00;4858979;29;45709;-76
2022/09/26 11:09:29;;;;;;;;;1.00;1.00;;;;;16.23;53.44;99675.41;4858981;29;46161;-75
2022/09/26 11:11:54;;;;;;;;;1.25;1.25;;;;;16.19;53.75;99674.94;4858987;29;45847;-75
2022/09/26 11:14:29;;;;;;;;;1.00;1.00;;;;;16.19;54.21;99671.47;4859487;29;46243;-74
2022/09/26 11:16:55;;;;;;;;;1.50;1.00;;;;;16.20;54.27;99666.00;4859048;29;46491;-74
2022/09/26 11:19:42;;;;;;;;;1.00;1.00;;;;;16.22;54.44;99666.66;4858950;29;46106;-75
2022/09/26 11:22:19;;;;;;;;;1.50;1.00;;;;;16.22;55.06;99658.72;4858947;29;45874;-73
2022/09/26 11:25:11;;;;;;;;;1.25;1.00;;;;;16.21;55.26;99653.59;4858907;29;45897;-79
2022/09/26 11:31:04;;;;;;;;;3.00;2.00;;;;;16.11;56.97;99650.31;4858676;29;45695;-76
2022/09/26 11:33:30;;;;;;;;;2.00;1.75;;;;;16.09;56.98;99650.47;4858550;29;45753;-77
2022/09/26 11:36:04;;;;;;;;;1.75;0.50;;;;;16.07;57.44;99649.00;4859121;29;45560;-78
2022/09/26 11:38:43;;;;;;;;;0.00;0.00;;;;;16.03;58.07;99637.13;4858697;29;45673;-75
2022/09/26 11:41:35;;;;;;;;;1.00;0.00;;;;;15.92;59.23;99630.38;4858980;29;47271;-75
2022/09/26 11:47:54;;;;;;;;;1.00;1.00;;;;;15.71;60.10;99607.09;4858552;29;45644;-73
2022/09/26 11:50:40;;;;;;;;;1.00;0.50;;;;;15.65;60.59;99609.59;4819208;29;46709;-75
2022/09/26 11:53:29;;;;;;;;;1.00;0.25;;;;;15.57;61.14;99594.59;4819240;29;45912;-75
2022/09/26 11:56:16;;;;;;;;;1.50;1.00;;;;;15.49;61.74;99589.28;4765081;29;45749;-73
2022/09/26 11:58:46;;;;;;;;;2.00;2.00;;;;;15.45;61.69;99590.59;4764568;29;46101;-74
2022/09/26 12:01:26;;;;;;;;;1.00;1.00;;;;;15.41;61.90;99586.63;4764388;29;46343;-74
2022/09/26 12:04:20;;;;;;;;;1.25;1.25;;;;;15.36;61.74;99581.03;4764726;29;46065;-74
2022/09/26 12:07:06;;;;;;;;;0.75;0.00;;;;;15.29;62.70;99580.03;4779497;29;45871;-78
2022/09/26 12:10:10;;;;;;;;;1.00;1.00;;;;;15.22;62.86;99565.84;4764860;29;45744;-75
2022/09/26 12:16:38;;;;;;;;;1.00;1.00;;;;;15.09;63.49;99584.78;4765215;29;46118;-74
2022/09/26 12:19:12;;;;;;;;;1.00;1.00;;;;;15.03;63.52;99578.34;4767321;29;45959;-75
2022/09/26 12:22:27;;;;;;;;;2.00;1.25;;;;;14.97;63.92;99588.72;4767421;29;45633;-74
2022/09/26 12:24:41;;;;;;;;;1.00;1.00;;;;;14.95;64.18;99602.06;4767252;29;45841;-74
2022/09/26 12:30:46;;;;;;;;;1.00;1.00;;;;;14.82;65.33;99588.53;4804834;29;45692;-76
2022/09/26 12:33:54;;;;;;;;;1.00;1.00;;;;;14.72;65.47;99579.13;4832516;29;45836;-79
2022/09/26 12:36:57;;;;;;;;;1.00;1.00;;;;;14.64;65.66;99570.19;4816892;29;46533;-73
2022/09/26 12:39:40;;;;;;;;;1.75;1.00;;;;;14.57;65.97;99582.38;4840649;29;46582;-79
2022/09/26 12:45:41;;;;;;;;;0.75;0.75;;;;;14.50;66.92;99581.34;4840998;29;45640;-74
2022/09/26 12:48:45;;;;;;;;;1.00;1.00;;;;;14.47;66.92;99573.75;4840594;29;46854;-77
2022/09/26 12:51:35;;;;;;;;;1.00;1.00;;;;;14.47;67.04;99572.94;4840064;29;47358;-78
2022/09/26 12:54:19;;;;;;;;;1.00;1.00;;;;;14.45;67.24;99569.63;4840131;29;45788;-76
2022/09/26 12:57:17;;;;;;;;;0.00;0.00;;;;;14.41;67.21;99571.78;4840698;29;45900;-78
2022/09/26 13:03:34;;;;;;;;;1.00;1.00;;;;;14.38;67.90;99571.25;4764853;29;46094;-76
2022/09/26 13:06:19;;;;;;;;;0.00;0.00;;;;;14.35;68.29;99569.75;4767077;29;45744;-78
2022/09/26 13:09:03;;;;;;;;;0.50;0.50;;;;;14.35;68.23;99568.91;4767514;29;45757;-77
2022/09/26 13:11:39;;;;;;;;;0.75;0.00;;;;;14.34;68.57;99567.25;4767120;29;46646;-76
2022/09/26 13:17:40;;;;;;;;;0.25;0.25;;;;;14.25;69.11;99569.84;4767077;29;45818;-79
2022/09/26 13:20:13;;;;;;;;;1.00;1.00;;;;;14.21;69.23;99567.69;4768144;29;45820;-79
2022/09/26 13:22:45;;;;;;;;;1.00;0.00;;;;;14.17;69.74;99558.44;4766617;29;46684;-76
2022/09/26 13:25:18;;;;;;;;;2.00;1.00;;;;;14.17;71.13;99532.94;4767356;29;46343;-76
2022/09/26 13:34:31;;;;;;;;;0.00;0.00;;;;;14.27;70.82;99530.16;4778274;29;45684;-75
2022/09/26 13:36:58;;;;;;;;;1.00;0.00;;;;;14.32;70.05;99548.13;4860732;29;45881;-76
2022/09/26 13:39:48;;;;;;;;;0.00;0.00;;;;;14.33;70.55;99537.44;4860351;29;45664;-78
2022/09/26 13:42:35;;;;;;;;;0.25;0.00;;;;;14.37;70.38;99537.97;4860750;29;45993;-76
2022/09/26 13:45:33;;;;;;;;;1.00;0.50;;;;;14.38;70.19;99547.53;4860682;29;47671;-77
2022/09/26 13:48:12;;;;;;;;;1.00;0.00;;;;;14.37;70.38;99548.50;4860019;29;46307;-76
2022/09/26 13:50:47;;;;;;;;;0.00;0.00;;;;;14.36;70.32;99555.56;4860625;29;45712;-75
2022/09/26 13:53:23;;;;;;;;;0.75;0.00;;;;;14.37;70.49;99548.50;4860313;29;45677;-75